sensor_id;sensor_type;location;lat;lon;timestamp;temperature;humidity
9790;DHT22;4934;50.852;8.098;2023-02-19T00:01:13;8.80;99.90
9790;DHT22;4934;50.852;8.098;2023-02-19T00:03:40;8.70;99.90
9790;DHT22;4934;50.852;8.098;2023-02-19T00:06:08;8.70;99.90
9790;DHT22;4934;50.852;8.098;2023-02-19T00:08:35;8.70;99.90
9790;DHT22;4934;50.852;8.098;2023-02-19T00:11:06;8.70;99.90
9790;DHT22;4934;50.852;8.098;2023-02-19T00:13:42;8.80;99.90
9790;DHT22;4934;50.852;8.098;2023-02-19T00:16:10;8.70;99.90
9790;DHT22;4934;50.852;8.098;2023-02-19T00:18:36;8.70;99.90
9790;DHT22;4934;50.852;8.098;2023-02-19T00:21:02;8.70;99.90
9790;DHT22;4934;50.852;8.098;2023-02-19T00:23:28;8.70;99.90
9790;DHT22;4934;50.852;8.098;2023-02-19T00:25:54;8.70;99.90
9790;DHT22;4934;50.852;8.098;2023-02-19T00:28:20;8.70;99.90
9790;DHT22;4934;50.852;8.098;2023-02-19T00:30:46;8.70;99.90
9790;DHT22;4934;50.852;8.098;2023-02-19T00:33:12;8.70;99.90
9790;DHT22;4934;50.852;8.098;2023-02-19T00:35:38;8.80;99.90
9790;DHT22;4934;50.852;8.098;2023-02-19T00:38:04;8.70;99.90
9790;DHT22;4934;50.852;8.098;2023-02-19T00:40:29;8.70;99.90
9790;DHT22;4934;50.852;8.098;2023-02-19T00:42:55;8.70;99.90
9790;DHT22;4934;50.852;8.098;2023-02-19T00:45:21;8.70;99.90
9790;DHT22;4934;50.852;8.098;2023-02-19T00:47:47;8.70;99.90
9790;DHT22;4934;50.852;8.098;2023-02-19T00:50:12;8.70;99.90
9790;DHT22;4934;50.852;8.098;2023-02-19T00:52:38;8.70;99.90
9790;DHT22;4934;50.852;8.098;2023-02-19T00:55:04;8.70;99.90
9790;DHT22;4934;50.852;8.098;2023-02-19T00:57:30;8.80;99.90
9790;DHT22;4934;50.852;8.098;2023-02-19T00:59:55;8.70;99.90
9790;DHT22;4934;50.852;8.098;2023-02-19T01:02:21;8.70;99.90
9790;DHT22;4934;50.852;8.098;2023-02-19T01:04:46;8.70;99.90
9790;DHT22;4934;50.852;8.098;2023-02-19T01:07:12;8.70;99.90
9790;DHT22;4934;50.852;8.098;2023-02-19T01:09:37;8.70;99.90
9790;DHT22;4934;50.852;8.098;2023-02-19T01:12:04;8.70;99.90
9790;DHT22;4934;50.852;8.098;2023-02-19T01:14:30;8.70;99.90
9790;DHT22;4934;50.852;8.098;2023-02-19T01:16:56;8.70;99.90
9790;DHT22;4934;50.852;8.098;2023-02-19T01:19:21;8.80;99.90
9790;DHT22;4934;50.852;8.098;2023-02-19T01:21:47;8.70;99.90
9790;DHT22;4934;50.852;8.098;2023-02-19T01:24:12;8.80;99.90
9790;DHT22;4934;50.852;8.098;2023-02-19T01:26:38;8.80;99.90
9790;DHT22;4934;50.852;8.098;2023-02-19T01:29:05;8.80;99.90
9790;DHT22;4934;50.852;8.098;2023-02-19T01:31:30;8.80;99.90
9790;DHT22;4934;50.852;8.098;2023-02-19T01:34:00;8.80;99.90
9790;DHT22;4934;50.852;8.098;2023-02-19T01:36:26;8.80;99.90
9790;DHT22;4934;50.852;8.098;2023-02-19T01:38:52;8.80;99.90
9790;DHT22;4934;50.852;8.098;2023-02-19T01:41:23;8.80;99.90
9790;DHT22;4934;50.852;8.098;2023-02-19T01:46:33;8.80;99.90
9790;DHT22;4934;50.852;8.098;2023-02-19T01:49:20;8.80;99.90
9790;DHT22;4934;50.852;8.098;2023-02-19T01:52:01;8.80;99.90
9790;DHT22;4934;50.852;8.098;2023-02-19T01:54:32;8.80;99.90
9790;DHT22;4934;50.852;8.098;2023-02-19T01:56:59;8.70;99.90
9790;DHT22;4934;50.852;8.098;2023-02-19T01:59:26;8.70;99.90
9790;DHT22;4934;50.852;8.098;2023-02-19T02:01:51;8.80;99.90
9790;DHT22;4934;50.852;8.098;2023-02-19T02:04:18;8.80;99.90
9790;DHT22;4934;50.852;8.098;2023-02-19T02:06:54;8.80;99.90
9790;DHT22;4934;50.852;8.098;2023-02-19T02:09:27;8.70;99.90
9790;DHT22;4934;50.852;8.098;2023-02-19T02:12:12;8.80;99.90
9790;DHT22;4934;50.852;8.098;2023-02-19T02:14:40;8.80;99.90
9790;DHT22;4934;50.852;8.098;2023-02-19T02:17:09;8.80;99.90
9790;DHT22;4934;50.852;8.098;2023-02-19T02:28:02;8.70;99.90
9790;DHT22;4934;50.852;8.098;2023-02-19T02:30:46;8.70;99.90
9790;DHT22;4934;50.852;8.098;2023-02-19T02:36:22;8.80;99.90
9790;DHT22;4934;50.852;8.098;2023-02-19T02:38:50;8.80;99.90
9790;DHT22;4934;50.852;8.098;2023-02-19T02:41:18;8.80;99.90
9790;DHT22;4934;50.852;8.098;2023-02-19T02:43:44;8.80;99.90
9790;DHT22;4934;50.852;8.098;2023-02-19T02:46:11;8.80;99.90
9790;DHT22;4934;50.852;8.098;2023-02-19T02:48:42;8.80;99.90
9790;DHT22;4934;50.852;8.098;2023-02-19T02:51:17;8.80;99.90
9790;DHT22;4934;50.852;8.098;2023-02-19T02:53:56;8.80;99.90
9790;DHT22;4934;50.852;8.098;2023-02-19T02:56:43;8.70;99.90
9790;DHT22;4934;50.852;8.098;2023-02-19T02:59:13;8.70;99.90
9790;DHT22;4934;50.852;8.098;2023-02-19T03:01:55;8.70;99.90
9790;DHT22;4934;50.852;8.098;2023-02-19T03:08:09;8.70;99.90
9790;DHT22;4934;50.852;8.098;2023-02-19T03:10:47;8.70;99.90
9790;DHT22;4934;50.852;8.098;2023-02-19T03:13:17;8.70;99.90
9790;DHT22;4934;50.852;8.098;2023-02-19T03:16:19;8.70;99.90
9790;DHT22;4934;50.852;8.098;2023-02-19T03:19:04;8.70;99.90
9790;DHT22;4934;50.852;8.098;2023-02-19T03:22:05;8.70;99.90
9790;DHT22;4934;50.852;8.098;2023-02-19T03:24:44;8.70;99.90
9790;DHT22;4934;50.852;8.098;2023-02-19T03:27:32;8.70;99.90
9790;DHT22;4934;50.852;8.098;2023-02-19T03:30:02;8.70;99.90
9790;DHT22;4934;50.852;8.098;2023-02-19T03:35:30;8.70;99.90
9790;DHT22;4934;50.852;8.098;2023-02-19T03:38:11;8.70;99.90
9790;DHT22;4934;50.852;8.098;2023-02-19T03:40:46;8.70;99.90
9790;DHT22;4934;50.852;8.098;2023-02-19T03:43:38;8.70;99.90
9790;DHT22;4934;50.852;8.098;2023-02-19T03:46:20;8.70;99.90
9790;DHT22;4934;50.852;8.098;2023-02-19T03:48:52;8.70;99.90
9790;DHT22;4934;50.852;8.098;2023-02-19T03:51:38;8.60;99.90
9790;DHT22;4934;50.852;8.098;2023-02-19T03:54:14;8.70;99.90
9790;DHT22;4934;50.852;8.098;2023-02-19T03:56:51;8.70;99.90
9790;DHT22;4934;50.852;8.098;2023-02-19T03:59:41;8.70;99.90
9790;DHT22;4934;50.852;8.098;2023-02-19T04:02:57;8.60;99.90
9790;DHT22;4934;50.852;8.098;2023-02-19T04:05:09;8.60;99.90
9790;DHT22;4934;50.852;8.098;2023-02-19T04:07:36;8.70;99.90
9790;DHT22;4934;50.852;8.098;2023-02-19T04:10:05;8.60;99.90
9790;DHT22;4934;50.852;8.098;2023-02-19T04:12:37;8.60;99.90
9790;DHT22;4934;50.852;8.098;2023-02-19T04:15:10;8.70;99.90
9790;DHT22;4934;50.852;8.098;2023-02-19T04:17:42;8.70;99.90
9790;DHT22;4934;50.852;8.098;2023-02-19T04:20:10;8.60;99.90
9790;DHT22;4934;50.852;8.098;2023-02-19T04:22:37;8.60;99.90
9790;DHT22;4934;50.852;8.098;2023-02-19T04:25:04;8.60;99.90
9790;DHT22;4934;50.852;8.098;2023-02-19T04:27:30;8.60;99.90
9790;DHT22;4934;50.852;8.098;2023-02-19T04:29:57;8.60;99.90
9790;DHT22;4934;50.852;8.098;2023-02-19T04:32:22;8.60;99.90
9790;DHT22;4934;50.852;8.098;2023-02-19T04:34:48;8.60;99.90
9790;DHT22;4934;50.852;8.098;2023-02-19T04:37:13;8.60;99.90
9790;DHT22;4934;50.852;8.098;2023-02-19T04:39:39;8.50;99.90
9790;DHT22;4934;50.852;8.098;2023-02-19T04:42:05;8.40;99.90
9790;DHT22;4934;50.852;8.098;2023-02-19T04:44:32;8.30;99.90
9790;DHT22;4934;50.852;8.098;2023-02-19T04:46:58;8.40;99.90
9790;DHT22;4934;50.852;8.098;2023-02-19T04:49:23;8.40;99.90
9790;DHT22;4934;50.852;8.098;2023-02-19T04:51:49;8.40;99.90
9790;DHT22;4934;50.852;8.098;2023-02-19T04:54:14;8.30;99.90
9790;DHT22;4934;50.852;8.098;2023-02-19T04:56:40;8.30;99.90
9790;DHT22;4934;50.852;8.098;2023-02-19T04:59:05;8.30;99.90
9790;DHT22;4934;50.852;8.098;2023-02-19T05:01:31;8.30;99.90
9790;DHT22;4934;50.852;8.098;2023-02-19T05:03:57;8.30;99.90
9790;DHT22;4934;50.852;8.098;2023-02-19T05:06:22;8.40;99.90
9790;DHT22;4934;50.852;8.098;2023-02-19T05:08:48;8.40;99.90
9790;DHT22;4934;50.852;8.098;2023-02-19T05:11:13;8.40;99.90
9790;DHT22;4934;50.852;8.098;2023-02-19T05:13:39;8.40;99.90
9790;DHT22;4934;50.852;8.098;2023-02-19T05:16:13;8.40;99.90
9790;DHT22;4934;50.852;8.098;2023-02-19T05:18:41;8.40;99.90
9790;DHT22;4934;50.852;8.098;2023-02-19T05:21:07;8.40;99.90
9790;DHT22;4934;50.852;8.098;2023-02-19T05:23:33;8.40;99.90
9790;DHT22;4934;50.852;8.098;2023-02-19T05:25:59;8.30;99.90
9790;DHT22;4934;50.852;8.098;2023-02-19T05:28:28;8.30;99.90
9790;DHT22;4934;50.852;8.098;2023-02-19T05:30:55;8.40;99.90
9790;DHT22;4934;50.852;8.098;2023-02-19T05:33:23;8.40;99.90
9790;DHT22;4934;50.852;8.098;2023-02-19T05:35:54;8.40;99.90
9790;DHT22;4934;50.852;8.098;2023-02-19T05:38:20;8.40;99.90
9790;DHT22;4934;50.852;8.098;2023-02-19T05:40:46;8.40;99.90
9790;DHT22;4934;50.852;8.098;2023-02-19T05:43:12;8.40;99.90
9790;DHT22;4934;50.852;8.098;2023-02-19T05:45:38;8.40;99.90
9790;DHT22;4934;50.852;8.098;2023-02-19T05:48:05;8.40;99.90
9790;DHT22;4934;50.852;8.098;2023-02-19T05:50:32;8.40;99.90
9790;DHT22;4934;50.852;8.098;2023-02-19T05:53:00;8.40;99.90
9790;DHT22;4934;50.852;8.098;2023-02-19T05:55:26;8.40;99.90
9790;DHT22;4934;50.852;8.098;2023-02-19T05:57:52;8.40;99.90
9790;DHT22;4934;50.852;8.098;2023-02-19T06:00:20;8.40;99.90
9790;DHT22;4934;50.852;8.098;2023-02-19T06:02:46;8.40;99.90
9790;DHT22;4934;50.852;8.098;2023-02-19T06:05:12;8.40;99.90
9790;DHT22;4934;50.852;8.098;2023-02-19T06:07:38;8.40;99.90
9790;DHT22;4934;50.852;8.098;2023-02-19T06:10:08;8.30;99.90
9790;DHT22;4934;50.852;8.098;2023-02-19T06:12:34;8.30;99.90
9790;DHT22;4934;50.852;8.098;2023-02-19T06:14:59;8.20;99.90
9790;DHT22;4934;50.852;8.098;2023-02-19T06:17:25;8.20;99.90
9790;DHT22;4934;50.852;8.098;2023-02-19T06:19:51;8.20;99.90
9790;DHT22;4934;50.852;8.098;2023-02-19T06:22:16;8.20;99.90
9790;DHT22;4934;50.852;8.098;2023-02-19T06:24:42;8.30;99.90
9790;DHT22;4934;50.852;8.098;2023-02-19T06:27:08;8.30;99.90
9790;DHT22;4934;50.852;8.098;2023-02-19T06:29:34;8.20;99.90
9790;DHT22;4934;50.852;8.098;2023-02-19T06:32:03;8.20;99.90
9790;DHT22;4934;50.852;8.098;2023-02-19T06:34:32;8.10;99.90
9790;DHT22;4934;50.852;8.098;2023-02-19T06:36:58;8.20;99.90
9790;DHT22;4934;50.852;8.098;2023-02-19T06:39:24;8.20;99.90
9790;DHT22;4934;50.852;8.098;2023-02-19T06:41:53;8.20;99.90
9790;DHT22;4934;50.852;8.098;2023-02-19T06:44:19;8.20;99.90
9790;DHT22;4934;50.852;8.098;2023-02-19T06:46:44;8.20;99.90
9790;DHT22;4934;50.852;8.098;2023-02-19T06:49:10;8.20;99.90
9790;DHT22;4934;50.852;8.098;2023-02-19T06:51:35;8.20;99.90
9790;DHT22;4934;50.852;8.098;2023-02-19T06:54:01;8.20;99.90
9790;DHT22;4934;50.852;8.098;2023-02-19T06:58:55;8.20;99.90
9790;DHT22;4934;50.852;8.098;2023-02-19T07:01:22;8.20;99.90
9790;DHT22;4934;50.852;8.098;2023-02-19T07:03:48;8.20;99.90
9790;DHT22;4934;50.852;8.098;2023-02-19T07:06:14;8.10;99.90
9790;DHT22;4934;50.852;8.098;2023-02-19T07:08:40;8.20;99.90
9790;DHT22;4934;50.852;8.098;2023-02-19T07:11:05;8.10;99.90
9790;DHT22;4934;50.852;8.098;2023-02-19T07:13:31;8.20;99.90
9790;DHT22;4934;50.852;8.098;2023-02-19T07:16:02;8.20;99.90
9790;DHT22;4934;50.852;8.098;2023-02-19T07:18:28;8.30;99.90
9790;DHT22;4934;50.852;8.098;2023-02-19T07:20:54;8.40;99.90
9790;DHT22;4934;50.852;8.098;2023-02-19T07:23:20;8.30;99.90
9790;DHT22;4934;50.852;8.098;2023-02-19T07:25:45;8.40;99.90
9790;DHT22;4934;50.852;8.098;2023-02-19T07:28:11;8.40;99.90
9790;DHT22;4934;50.852;8.098;2023-02-19T07:30:37;8.40;99.90
9790;DHT22;4934;50.852;8.098;2023-02-19T07:33:21;8.40;99.90
9790;DHT22;4934;50.852;8.098;2023-02-19T07:36:07;8.40;99.90
9790;DHT22;4934;50.852;8.098;2023-02-19T07:38:57;8.40;99.90
9790;DHT22;4934;50.852;8.098;2023-02-19T07:41:43;8.30;99.90
9790;DHT22;4934;50.852;8.098;2023-02-19T07:44:29;8.30;99.90
9790;DHT22;4934;50.852;8.098;2023-02-19T07:47:15;8.30;99.90
9790;DHT22;4934;50.852;8.098;2023-02-19T07:50:01;8.30;99.90
9790;DHT22;4934;50.852;8.098;2023-02-19T07:52:47;8.20;99.90
9790;DHT22;4934;50.852;8.098;2023-02-19T07:55:33;8.10;99.90
9790;DHT22;4934;50.852;8.098;2023-02-19T07:58:19;8.10;99.90
9790;DHT22;4934;50.852;8.098;2023-02-19T08:01:07;8.10;99.90
9790;DHT22;4934;50.852;8.098;2023-02-19T08:03:53;8.10;99.90
9790;DHT22;4934;50.852;8.098;2023-02-19T08:06:19;8.00;99.90
9790;DHT22;4934;50.852;8.098;2023-02-19T08:08:44;8.10;99.90
9790;DHT22;4934;50.852;8.098;2023-02-19T08:11:10;8.10;99.90
9790;DHT22;4934;50.852;8.098;2023-02-19T08:13:54;8.10;99.90
9790;DHT22;4934;50.852;8.098;2023-02-19T08:16:20;8.10;99.90
9790;DHT22;4934;50.852;8.098;2023-02-19T08:18:47;8.10;99.90
9790;DHT22;4934;50.852;8.098;2023-02-19T08:21:13;8.20;99.90
9790;DHT22;4934;50.852;8.098;2023-02-19T08:23:39;8.20;99.90
9790;DHT22;4934;50.852;8.098;2023-02-19T08:26:05;7.90;99.90
9790;DHT22;4934;50.852;8.098;2023-02-19T08:28:31;7.90;99.90
9790;DHT22;4934;50.852;8.098;2023-02-19T08:31:01;7.80;99.90
9790;DHT22;4934;50.852;8.098;2023-02-19T08:33:28;7.80;99.90
9790;DHT22;4934;50.852;8.098;2023-02-19T08:35:55;7.90;99.90
9790;DHT22;4934;50.852;8.098;2023-02-19T08:38:21;7.90;99.90
9790;DHT22;4934;50.852;8.098;2023-02-19T08:40:46;8.00;99.90
9790;DHT22;4934;50.852;8.098;2023-02-19T08:43:14;8.00;99.90
9790;DHT22;4934;50.852;8.098;2023-02-19T08:45:42;8.00;99.90
9790;DHT22;4934;50.852;8.098;2023-02-19T08:48:08;8.20;99.90
9790;DHT22;4934;50.852;8.098;2023-02-19T08:50:34;8.10;99.90
9790;DHT22;4934;50.852;8.098;2023-02-19T08:53:01;8.10;99.90
9790;DHT22;4934;50.852;8.098;2023-02-19T08:55:27;8.10;99.90
9790;DHT22;4934;50.852;8.098;2023-02-19T08:57:53;8.20;99.90
9790;DHT22;4934;50.852;8.098;2023-02-19T09:00:19;8.10;99.90
9790;DHT22;4934;50.852;8.098;2023-02-19T09:02:46;8.10;99.90
9790;DHT22;4934;50.852;8.098;2023-02-19T09:05:12;8.20;99.90
9790;DHT22;4934;50.852;8.098;2023-02-19T09:07:38;8.20;99.90
9790;DHT22;4934;50.852;8.098;2023-02-19T09:10:04;8.30;99.90
9790;DHT22;4934;50.852;8.098;2023-02-19T09:12:30;8.40;99.90
9790;DHT22;4934;50.852;8.098;2023-02-19T09:14:55;8.40;99.90
9790;DHT22;4934;50.852;8.098;2023-02-19T09:17:21;8.40;99.90
9790;DHT22;4934;50.852;8.098;2023-02-19T09:19:47;8.50;99.90
9790;DHT22;4934;50.852;8.098;2023-02-19T09:22:12;8.50;99.90
9790;DHT22;4934;50.852;8.098;2023-02-19T09:24:38;8.50;99.90
9790;DHT22;4934;50.852;8.098;2023-02-19T09:27:03;8.60;99.90
9790;DHT22;4934;50.852;8.098;2023-02-19T09:29:29;8.60;99.90
9790;DHT22;4934;50.852;8.098;2023-02-19T09:31:59;8.40;99.90
9790;DHT22;4934;50.852;8.098;2023-02-19T09:34:26;8.40;99.90
9790;DHT22;4934;50.852;8.098;2023-02-19T09:36:53;8.30;99.90
9790;DHT22;4934;50.852;8.098;2023-02-19T09:39:19;8.30;99.90
9790;DHT22;4934;50.852;8.098;2023-02-19T09:41:50;8.30;99.90
9790;DHT22;4934;50.852;8.098;2023-02-19T09:46:50;8.30;99.90
9790;DHT22;4934;50.852;8.098;2023-02-19T09:51:50;8.30;99.90
9790;DHT22;4934;50.852;8.098;2023-02-19T09:54:21;8.20;99.90
9790;DHT22;4934;50.852;8.098;2023-02-19T09:56:47;8.10;99.90
9790;DHT22;4934;50.852;8.098;2023-02-19T09:59:23;8.20;99.90
9790;DHT22;4934;50.852;8.098;2023-02-19T10:01:56;8.20;99.90
9790;DHT22;4934;50.852;8.098;2023-02-19T10:04:23;8.40;99.90
9790;DHT22;4934;50.852;8.098;2023-02-19T10:06:50;8.50;99.90
9790;DHT22;4934;50.852;8.098;2023-02-19T10:09:22;8.40;99.90
9790;DHT22;4934;50.852;8.098;2023-02-19T10:11:48;8.40;99.90
9790;DHT22;4934;50.852;8.098;2023-02-19T10:14:37;8.30;99.90
9790;DHT22;4934;50.852;8.098;2023-02-19T10:17:05;8.20;99.90
9790;DHT22;4934;50.852;8.098;2023-02-19T10:19:32;8.30;99.90
9790;DHT22;4934;50.852;8.098;2023-02-19T10:21:59;8.40;99.90
9790;DHT22;4934;50.852;8.098;2023-02-19T10:24:28;8.40;99.90
9790;DHT22;4934;50.852;8.098;2023-02-19T10:26:55;8.40;99.90
9790;DHT22;4934;50.852;8.098;2023-02-19T10:29:21;8.60;99.90
9790;DHT22;4934;50.852;8.098;2023-02-19T10:31:46;8.60;99.90
9790;DHT22;4934;50.852;8.098;2023-02-19T10:34:21;8.50;99.90
9790;DHT22;4934;50.852;8.098;2023-02-19T10:36:49;8.60;99.90
9790;DHT22;4934;50.852;8.098;2023-02-19T10:41:48;8.40;99.90
9790;DHT22;4934;50.852;8.098;2023-02-19T10:44:17;8.40;99.90
9790;DHT22;4934;50.852;8.098;2023-02-19T10:46:50;8.50;99.90
9790;DHT22;4934;50.852;8.098;2023-02-19T10:49:38;8.50;99.90
9790;DHT22;4934;50.852;8.098;2023-02-19T10:52:23;8.50;99.90
9790;DHT22;4934;50.852;8.098;2023-02-19T10:57:47;8.60;99.90
9790;DHT22;4934;50.852;8.098;2023-02-19T11:02:43;8.40;99.90
9790;DHT22;4934;50.852;8.098;2023-02-19T11:12:53;8.70;99.90
9790;DHT22;4934;50.852;8.098;2023-02-19T11:15:34;8.70;99.90
9790;DHT22;4934;50.852;8.098;2023-02-19T11:18:21;8.80;99.90
9790;DHT22;4934;50.852;8.098;2023-02-19T11:20:52;9.00;99.90
9790;DHT22;4934;50.852;8.098;2023-02-19T11:23:28;9.10;99.90
9790;DHT22;4934;50.852;8.098;2023-02-19T11:25:56;9.10;99.90
9790;DHT22;4934;50.852;8.098;2023-02-19T11:28:37;9.00;99.90
9790;DHT22;4934;50.852;8.098;2023-02-19T11:34:12;8.80;99.90
9790;DHT22;4934;50.852;8.098;2023-02-19T11:37:14;8.90;99.90
9790;DHT22;4934;50.852;8.098;2023-02-19T11:39:43;9.00;99.90
9790;DHT22;4934;50.852;8.098;2023-02-19T11:53:20;9.30;99.90
9790;DHT22;4934;50.852;8.098;2023-02-19T12:07:31;9.30;99.90
9790;DHT22;4934;50.852;8.098;2023-02-19T12:15:53;9.20;99.90
9790;DHT22;4934;50.852;8.098;2023-02-19T12:18:32;9.20;99.90
9790;DHT22;4934;50.852;8.098;2023-02-19T12:24:35;8.80;99.90
9790;DHT22;4934;50.852;8.098;2023-02-19T12:27:19;8.80;99.90
9790;DHT22;4934;50.852;8.098;2023-02-19T12:35:39;8.80;99.90
9790;DHT22;4934;50.852;8.098;2023-02-19T12:41:18;9.10;99.90
9790;DHT22;4934;50.852;8.098;2023-02-19T12:44:04;9.30;99.90
9790;DHT22;4934;50.852;8.098;2023-02-19T12:46:38;9.40;99.90
9790;DHT22;4934;50.852;8.098;2023-02-19T12:49:09;9.60;99.90
9790;DHT22;4934;50.852;8.098;2023-02-19T12:51:46;9.50;99.90
9790;DHT22;4934;50.852;8.098;2023-02-19T12:56:59;9.50;99.90
9790;DHT22;4934;50.852;8.098;2023-02-19T12:59:38;9.40;99.90
9790;DHT22;4934;50.852;8.098;2023-02-19T13:02:13;9.20;99.90
9790;DHT22;4934;50.852;8.098;2023-02-19T13:09:55;8.90;99.90
9790;DHT22;4934;50.852;8.098;2023-02-19T13:12:23;9.10;99.90
9790;DHT22;4934;50.852;8.098;2023-02-19T13:14:55;9.20;99.90
9790;DHT22;4934;50.852;8.098;2023-02-19T13:20:21;9.20;99.90
9790;DHT22;4934;50.852;8.098;2023-02-19T13:23:06;9.10;99.90
9790;DHT22;4934;50.852;8.098;2023-02-19T13:29:02;9.20;99.90
9790;DHT22;4934;50.852;8.098;2023-02-19T13:37:25;9.10;99.90
9790;DHT22;4934;50.852;8.098;2023-02-19T13:39:53;8.90;99.90
9790;DHT22;4934;50.852;8.098;2023-02-19T13:42:40;8.80;99.90
9790;DHT22;4934;50.852;8.098;2023-02-19T13:45:05;8.80;99.90
9790;DHT22;4934;50.852;8.098;2023-02-19T13:50:27;8.60;99.90
9790;DHT22;4934;50.852;8.098;2023-02-19T13:52:54;8.80;99.90
9790;DHT22;4934;50.852;8.098;2023-02-19T14:01:11;8.80;99.90
9790;DHT22;4934;50.852;8.098;2023-02-19T14:03:39;8.90;99.90
9790;DHT22;4934;50.852;8.098;2023-02-19T14:06:09;9.00;99.90
9790;DHT22;4934;50.852;8.098;2023-02-19T14:11:16;8.80;99.90
9790;DHT22;4934;50.852;8.098;2023-02-19T14:19:03;8.80;99.90
9790;DHT22;4934;50.852;8.098;2023-02-19T14:21:38;8.70;99.90
9790;DHT22;4934;50.852;8.098;2023-02-19T14:24:10;8.70;99.90
9790;DHT22;4934;50.852;8.098;2023-02-19T14:26:37;8.70;99.90
9790;DHT22;4934;50.852;8.098;2023-02-19T14:29:06;8.70;99.90
9790;DHT22;4934;50.852;8.098;2023-02-19T14:31:35;8.50;99.90
9790;DHT22;4934;50.852;8.098;2023-02-19T14:34:05;8.40;99.90
9790;DHT22;4934;50.852;8.098;2023-02-19T14:37:00;8.40;99.90
9790;DHT22;4934;50.852;8.098;2023-02-19T14:39:32;8.50;99.90
9790;DHT22;4934;50.852;8.098;2023-02-19T14:42:01;8.50;99.90
9790;DHT22;4934;50.852;8.098;2023-02-19T14:44:46;8.60;99.90
9790;DHT22;4934;50.852;8.098;2023-02-19T14:47:18;8.60;99.90
9790;DHT22;4934;50.852;8.098;2023-02-19T14:52:37;8.40;99.90
9790;DHT22;4934;50.852;8.098;2023-02-19T14:55:08;8.40;99.90
9790;DHT22;4934;50.852;8.098;2023-02-19T14:57:39;8.40;99.90
9790;DHT22;4934;50.852;8.098;2023-02-19T15:02:48;8.50;99.90
9790;DHT22;4934;50.852;8.098;2023-02-19T15:05:21;8.60;99.90
9790;DHT22;4934;50.852;8.098;2023-02-19T15:07:48;8.60;99.90
9790;DHT22;4934;50.852;8.098;2023-02-19T15:10:14;8.60;99.90
9790;DHT22;4934;50.852;8.098;2023-02-19T15:12:46;8.50;99.90
9790;DHT22;4934;50.852;8.098;2023-02-19T15:15:23;8.40;99.90
9790;DHT22;4934;50.852;8.098;2023-02-19T15:17:51;8.50;99.90
9790;DHT22;4934;50.852;8.098;2023-02-19T15:20:21;8.50;99.90
9790;DHT22;4934;50.852;8.098;2023-02-19T15:22:48;8.40;99.90
9790;DHT22;4934;50.852;8.098;2023-02-19T15:25:22;8.50;99.90
9790;DHT22;4934;50.852;8.098;2023-02-19T15:27:48;8.60;99.90
9790;DHT22;4934;50.852;8.098;2023-02-19T15:30:19;8.60;99.90
9790;DHT22;4934;50.852;8.098;2023-02-19T15:32:56;8.60;99.90
9790;DHT22;4934;50.852;8.098;2023-02-19T15:35:24;8.60;99.90
9790;DHT22;4934;50.852;8.098;2023-02-19T15:37:51;8.50;99.90
9790;DHT22;4934;50.852;8.098;2023-02-19T15:40:19;8.60;99.90
9790;DHT22;4934;50.852;8.098;2023-02-19T15:42:46;8.60;99.90
9790;DHT22;4934;50.852;8.098;2023-02-19T15:45:23;8.60;99.90
9790;DHT22;4934;50.852;8.098;2023-02-19T15:48:04;8.50;99.90
9790;DHT22;4934;50.852;8.098;2023-02-19T15:50:37;8.50;99.90
9790;DHT22;4934;50.852;8.098;2023-02-19T15:53:26;8.40;99.90
9790;DHT22;4934;50.852;8.098;2023-02-19T15:56:10;8.40;99.90
9790;DHT22;4934;50.852;8.098;2023-02-19T15:58:46;8.40;99.90
9790;DHT22;4934;50.852;8.098;2023-02-19T16:01:18;8.30;99.90
9790;DHT22;4934;50.852;8.098;2023-02-19T16:03:45;8.30;99.90
9790;DHT22;4934;50.852;8.098;2023-02-19T16:06:14;8.20;99.90
9790;DHT22;4934;50.852;8.098;2023-02-19T16:08:41;8.20;99.90
9790;DHT22;4934;50.852;8.098;2023-02-19T16:13:51;8.00;99.90
9790;DHT22;4934;50.852;8.098;2023-02-19T16:16:27;8.00;99.90
9790;DHT22;4934;50.852;8.098;2023-02-19T16:18:56;8.00;99.90
9790;DHT22;4934;50.852;8.098;2023-02-19T16:21:24;7.90;99.90
9790;DHT22;4934;50.852;8.098;2023-02-19T16:23:55;8.00;99.90
9790;DHT22;4934;50.852;8.098;2023-02-19T16:26:23;7.90;99.90
9790;DHT22;4934;50.852;8.098;2023-02-19T16:28:51;7.90;99.90
9790;DHT22;4934;50.852;8.098;2023-02-19T16:31:20;7.90;99.90
9790;DHT22;4934;50.852;8.098;2023-02-19T16:33:47;7.90;99.90
9790;DHT22;4934;50.852;8.098;2023-02-19T16:36:36;7.90;99.90
9790;DHT22;4934;50.852;8.098;2023-02-19T16:46:54;7.80;99.90
9790;DHT22;4934;50.852;8.098;2023-02-19T16:49:22;7.80;99.90
9790;DHT22;4934;50.852;8.098;2023-02-19T16:51:48;7.80;99.90
9790;DHT22;4934;50.852;8.098;2023-02-19T16:54:13;7.80;99.90
9790;DHT22;4934;50.852;8.098;2023-02-19T16:56:39;7.80;99.90
9790;DHT22;4934;50.852;8.098;2023-02-19T16:59:05;7.70;99.90
9790;DHT22;4934;50.852;8.098;2023-02-19T17:01:34;7.70;99.90
9790;DHT22;4934;50.852;8.098;2023-02-19T17:04:05;7.70;99.90
9790;DHT22;4934;50.852;8.098;2023-02-19T17:06:32;7.70;99.90
9790;DHT22;4934;50.852;8.098;2023-02-19T17:08:59;7.70;99.90
9790;DHT22;4934;50.852;8.098;2023-02-19T17:11:25;7.70;99.90
9790;DHT22;4934;50.852;8.098;2023-02-19T17:13:51;7.60;99.90
9790;DHT22;4934;50.852;8.098;2023-02-19T17:16:22;7.60;99.90
9790;DHT22;4934;50.852;8.098;2023-02-19T17:18:48;7.60;99.90
9790;DHT22;4934;50.852;8.098;2023-02-19T17:21:34;7.60;99.90
9790;DHT22;4934;50.852;8.098;2023-02-19T17:24:00;7.60;99.90
9790;DHT22;4934;50.852;8.098;2023-02-19T17:26:29;7.60;99.90
9790;DHT22;4934;50.852;8.098;2023-02-19T17:29:00;7.60;99.90
9790;DHT22;4934;50.852;8.098;2023-02-19T17:31:26;7.50;99.90
9790;DHT22;4934;50.852;8.098;2023-02-19T17:33:52;7.60;99.90
9790;DHT22;4934;50.852;8.098;2023-02-19T17:36:24;7.60;99.90
9790;DHT22;4934;50.852;8.098;2023-02-19T17:38:55;7.60;99.90
9790;DHT22;4934;50.852;8.098;2023-02-19T17:41:21;7.60;99.90
9790;DHT22;4934;50.852;8.098;2023-02-19T17:43:46;7.60;99.90
9790;DHT22;4934;50.852;8.098;2023-02-19T17:46:19;7.60;99.90
9790;DHT22;4934;50.852;8.098;2023-02-19T17:48:44;7.50;99.90
9790;DHT22;4934;50.852;8.098;2023-02-19T17:51:11;7.50;99.90
9790;DHT22;4934;50.852;8.098;2023-02-19T17:53:36;7.50;99.90
9790;DHT22;4934;50.852;8.098;2023-02-19T17:56:02;7.40;99.90
9790;DHT22;4934;50.852;8.098;2023-02-19T17:58:28;7.40;99.90
9790;DHT22;4934;50.852;8.098;2023-02-19T18:00:53;7.50;99.90
9790;DHT22;4934;50.852;8.098;2023-02-19T18:03:19;7.50;99.90
9790;DHT22;4934;50.852;8.098;2023-02-19T18:05:45;7.50;99.90
9790;DHT22;4934;50.852;8.098;2023-02-19T18:08:10;7.50;99.90
9790;DHT22;4934;50.852;8.098;2023-02-19T18:10:36;7.50;99.90
9790;DHT22;4934;50.852;8.098;2023-02-19T18:13:02;7.50;99.90
9790;DHT22;4934;50.852;8.098;2023-02-19T18:15:27;7.50;99.90
9790;DHT22;4934;50.852;8.098;2023-02-19T18:17:54;7.50;99.90
9790;DHT22;4934;50.852;8.098;2023-02-19T18:20:25;7.50;99.90
9790;DHT22;4934;50.852;8.098;2023-02-19T18:22:52;7.50;99.90
9790;DHT22;4934;50.852;8.098;2023-02-19T18:25:18;7.50;99.90
9790;DHT22;4934;50.852;8.098;2023-02-19T18:27:44;7.40;99.90
9790;DHT22;4934;50.852;8.098;2023-02-19T18:30:11;7.40;99.90
9790;DHT22;4934;50.852;8.098;2023-02-19T18:32:37;7.40;99.90
9790;DHT22;4934;50.852;8.098;2023-02-19T18:35:04;7.50;99.90
9790;DHT22;4934;50.852;8.098;2023-02-19T18:37:30;7.50;99.90
9790;DHT22;4934;50.852;8.098;2023-02-19T18:40:01;7.50;99.90
9790;DHT22;4934;50.852;8.098;2023-02-19T18:42:28;7.50;99.90
9790;DHT22;4934;50.852;8.098;2023-02-19T18:44:54;7.50;99.90
9790;DHT22;4934;50.852;8.098;2023-02-19T18:47:21;7.50;99.90
9790;DHT22;4934;50.852;8.098;2023-02-19T18:49:48;7.50;99.90
9790;DHT22;4934;50.852;8.098;2023-02-19T18:52:15;7.40;99.90
9790;DHT22;4934;50.852;8.098;2023-02-19T18:54:41;7.40;99.90
9790;DHT22;4934;50.852;8.098;2023-02-19T18:57:07;7.40;99.90